Time;durP1;ratioP1;P1;durP2;ratioP2;P2;SDS_P1;SDS_P2;PMS_P1;PMS_P2;Temp;Humidity;BMP_temperature;BMP_pressure;BME280_temperature;BME280_humidity;BME280_pressure;Samples;Min_cycle;Max_cycle;Signal;HPM_P1;HPM_P2
2021/01/05 00:00:34;;;;;;;14.63;10.90;;;2.40;99.90;1.10;96020.00;;;;6197139;23;20551;-84
2021/01/05 00:03:02;;;;;;;14.20;9.83;;;2.40;99.90;1.00;96024.00;;;;6195093;23;20181;-84
2021/01/05 00:05:29;;;;;;;16.33;12.00;;;2.30;99.90;1.00;96028.00;;;;6194989;23;20512;-84
2021/01/05 00:07:58;;;;;;;20.00;11.87;;;2.30;99.90;1.10;96024.00;;;;6192321;23;20909;-84
2021/01/05 00:10:25;;;;;;;20.43;12.80;;;2.30;99.90;1.10;96030.00;;;;6190984;23;20886;-85
2021/01/05 00:12:53;;;;;;;17.53;10.90;;;2.20;99.90;1.10;96030.00;;;;6188722;23;20758;-84
2021/01/05 00:15:21;;;;;;;16.70;11.83;;;2.20;99.90;1.10;96033.00;;;;6190553;23;20423;-85
2021/01/05 00:17:49;;;;;;;21.10;13.10;;;2.30;99.90;1.20;96036.00;;;;6189665;23;20414;-85
2021/01/05 00:20:21;;;;;;;18.70;11.60;;;2.30;99.90;1.20;96030.00;;;;6189963;23;20420;-86
2021/01/05 00:22:48;;;;;;;12.00;9.83;;;2.30;99.90;1.20;96034.00;;;;6189978;23;20528;-84
2021/01/05 00:25:20;;;;;;;14.60;9.87;;;2.30;99.90;1.20;96035.00;;;;6189859;23;20424;-85
2021/01/05 00:27:47;;;;;;;12.50;9.17;;;2.30;99.90;1.10;96035.00;;;;6190518;23;20401;-85
2021/01/05 00:30:18;;;;;;;11.33;8.33;;;2.30;99.90;1.00;96036.00;;;;6191430;23;20439;-84
2021/01/05 00:32:48;;;;;;;13.43;8.80;;;2.30;99.90;1.00;96045.00;;;;6190008;23;20201;-84
2021/01/05 00:35:22;;;;;;;13.90;9.00;;;2.30;99.90;1.00;96048.00;;;;6189936;23;20425;-84
2021/01/05 00:37:50;;;;;;;12.60;8.90;;;2.20;99.90;1.00;96055.00;;;;6189257;23;20415;-84
2021/01/05 00:40:19;;;;;;;13.60;7.90;;;2.30;99.90;1.10;96056.00;;;;6188242;23;20404;-84
2021/01/05 00:42:47;;;;;;;10.50;7.77;;;2.30;99.90;1.00;96052.00;;;;6188481;23;20912;-83
2021/01/05 00:45:20;;;;;;;12.50;9.00;;;2.20;99.90;1.00;96055.00;;;;6189033;23;20417;-84
2021/01/05 00:47:48;;;;;;;11.13;7.43;;;2.20;99.90;1.10;96059.00;;;;6190116;23;20397;-84
2021/01/05 00:50:16;;;;;;;15.27;9.30;;;2.30;99.90;1.10;96048.00;;;;6191429;23;20415;-84
2021/01/05 00:52:44;;;;;;;13.43;8.57;;;2.20;99.90;1.10;96058.00;;;;6189535;23;20432;-84
2021/01/05 00:55:13;;;;;;;9.80;7.87;;;2.30;99.90;1.00;96067.00;;;;6190325;23;20731;-85
2021/01/05 00:57:43;;;;;;;9.23;7.57;;;2.20;99.90;1.00;96067.00;;;;6187870;23;20401;-83
2021/01/05 01:00:18;;;;;;;9.93;7.23;;;2.30;99.90;1.10;96064.00;;;;6186812;23;20496;-83
2021/01/05 01:02:49;;;;;;;11.37;7.87;;;2.30;99.90;1.10;96058.00;;;;6187113;23;20435;-83
2021/01/05 01:05:17;;;;;;;10.30;7.10;;;2.30;99.90;1.10;96057.00;;;;6187289;23;20397;-84
2021/01/05 01:07:45;;;;;;;11.57;6.33;;;2.30;99.90;1.10;96053.00;;;;6185060;23;20758;-84
2021/01/05 01:10:13;;;;;;;7.97;5.70;;;2.30;99.90;1.10;96057.00;;;;6186822;23;20523;-84
2021/01/05 01:12:41;;;;;;;9.63;7.20;;;2.30;99.90;1.10;96052.00;;;;6186659;23;20959;-84
2021/01/05 01:15:12;;;;;;;9.23;7.03;;;2.30;99.90;1.20;96048.00;;;;6186281;23;20420;-86
2021/01/05 01:17:40;;;;;;;10.00;7.67;;;2.30;99.90;1.10;96050.00;;;;6185930;23;20742;-83
2021/01/05 01:20:10;;;;;;;10.90;7.60;;;2.30;99.90;1.10;96053.00;;;;6186751;23;20177;-85
2021/01/05 01:22:37;;;;;;;12.67;8.57;;;2.30;99.90;1.10;96047.00;;;;6186297;23;20436;-85
2021/01/05 01:25:07;;;;;;;9.10;6.63;;;2.30;99.90;1.10;96048.00;;;;6185682;23;20459;-85
2021/01/05 01:27:34;;;;;;;12.07;7.53;;;2.30;99.90;1.10;96041.00;;;;6185825;23;20504;-86
2021/01/05 01:30:04;;;;;;;11.03;8.10;;;2.30;99.90;1.10;96052.00;;;;6186324;23;20419;-84
2021/01/05 01:32:33;;;;;;;8.73;6.53;;;2.30;99.90;1.20;96043.00;;;;6185697;23;20424;-84
2021/01/05 01:35:00;;;;;;;12.53;7.17;;;2.50;99.90;1.20;96044.00;;;;6186231;23;20428;-84
2021/01/05 01:37:28;;;;;;;11.07;7.03;;;2.30;99.90;1.20;96034.00;;;;6186484;23;20408;-84
2021/01/05 01:39:55;;;;;;;7.77;6.67;;;2.30;99.90;1.20;96030.00;;;;6186896;23;20393;-85
2021/01/05 01:42:23;;;;;;;9.23;7.37;;;2.30;99.90;1.20;96025.00;;;;6186500;23;20432;-86
2021/01/05 01:44:53;;;;;;;10.07;6.13;;;2.30;99.90;1.30;96031.00;;;;6187216;23;20256;-83
2021/01/05 01:47:26;;;;;;;11.40;7.67;;;2.40;99.90;1.30;96016.00;;;;6185698;23;20439;-84
2021/01/05 01:49:58;;;;;;;8.80;7.07;;;2.40;99.90;1.10;96015.00;;;;6186332;23;20393;-85
2021/01/05 01:52:51;;;;;;;10.13;7.43;;;2.40;99.90;1.10;96015.00;;;;6185831;23;20428;-83
2021/01/05 01:55:38;;;;;;;9.20;7.83;;;2.40;99.90;1.10;96018.00;;;;6187399;23;20389;-85
2021/01/05 01:58:33;;;;;;;10.70;8.97;;;2.30;99.90;1.10;96021.00;;;;6187866;23;20391;-83
2021/01/05 02:01:15;;;;;;;10.90;7.43;;;2.30;99.90;1.10;96019.00;;;;6188257;23;20436;-85
2021/01/05 02:04:17;;;;;;;8.53;6.87;;;2.30;99.90;1.10;96022.00;;;;6186707;23;20404;-85
2021/01/05 02:07:14;;;;;;;14.33;8.57;;;2.20;99.90;1.00;96017.00;;;;6186465;23;20745;-83
2021/01/05 02:10:10;;;;;;;9.17;6.30;;;2.20;99.90;1.00;96017.00;;;;6174584;23;20412;-84
2021/01/05 02:12:51;;;;;;;10.50;7.10;;;2.20;99.90;1.00;96008.00;;;;6186258;23;20433;-85
2021/01/05 02:15:32;;;;;;;10.50;7.17;;;2.20;99.90;1.00;96019.00;;;;6186789;23;20887;-86
2021/01/05 02:18:38;;;;;;;10.53;6.67;;;2.20;99.90;1.10;96008.00;;;;6186491;23;20399;-86
2021/01/05 02:21:14;;;;;;;9.50;6.10;;;2.20;99.90;1.00;96015.00;;;;6188347;23;20428;-85
2021/01/05 02:24:06;;;;;;;10.07;7.20;;;2.20;99.90;1.00;96019.00;;;;6186396;23;20869;-86
2021/01/05 02:26:42;;;;;;;10.37;6.93;;;2.20;99.90;1.10;96011.00;;;;6186323;23;20432;-86
2021/01/05 02:29:14;;;;;;;11.40;6.27;;;2.20;99.90;1.00;96010.00;;;;6185493;23;20404;-86
2021/01/05 02:31:53;;;;;;;8.27;6.97;;;2.20;99.90;1.00;96010.00;;;;6187040;23;20471;-84
2021/01/05 02:35:03;;;;;;;9.77;6.87;;;2.20;99.90;1.10;96005.00;;;;6187027;23;20400;-85
2021/01/05 02:37:51;;;;;;;8.30;6.33;;;2.20;99.90;1.10;96010.00;;;;6187146;23;20911;-84
2021/01/05 02:40:45;;;;;;;8.17;6.57;;;2.30;99.90;1.10;96000.00;;;;6187681;23;20723;-84
2021/01/05 02:44:06;;;;;;;8.50;6.33;;;2.20;99.90;1.20;96008.00;;;;6161274;23;20936;-86
2021/01/05 02:46:51;;;;;;;7.90;6.37;;;2.30;99.90;1.10;96008.00;;;;6173178;23;20448;-83
2021/01/05 02:49:46;;;;;;;8.13;6.57;;;2.30;99.90;1.20;96004.00;;;;6187130;23;20188;-85
2021/01/05 02:53:11;;;;;;;11.87;7.97;;;2.30;99.90;1.10;96002.00;;;;6185353;23;20436;-84
2021/01/05 02:56:31;;;;;;;10.07;7.03;;;2.30;99.90;1.10;95996.00;;;;6185844;23;20175;-85
2021/01/05 02:59:53;;;;;;;7.30;6.53;;;2.30;99.90;1.10;96002.00;;;;6187364;23;20392;-84
2021/01/05 03:03:38;;;;;;;9.40;6.47;;;2.30;99.90;1.10;95995.00;;;;6143008;23;20437;-83
2021/01/05 03:06:34;;;;;;;10.83;7.03;;;2.30;99.90;1.00;95989.00;;;;6188026;23;20433;-86
2021/01/05 03:09:37;;;;;;;10.13;7.07;;;2.30;99.90;1.00;95992.00;;;;6185529;23;20417;-85
2021/01/05 03:12:41;;;;;;;9.70;6.70;;;2.30;99.90;1.10;95988.00;;;;6189328;23;20440;-85
2021/01/05 03:15:28;;;;;;;10.63;6.17;;;2.20;99.90;1.10;95977.00;;;;6125298;23;20423;-85
2021/01/05 03:18:03;;;;;;;10.43;7.57;;;2.20;99.90;1.10;95978.00;;;;6189400;23;20420;-85
2021/01/05 03:20:38;;;;;;;8.00;6.30;;;2.30;99.90;1.10;95982.00;;;;6189638;23;20193;-86
2021/01/05 03:23:11;;;;;;;8.73;6.50;;;2.30;99.90;1.10;95971.00;;;;6187607;23;20401;-84
2021/01/05 03:25:43;;;;;;;9.40;6.63;;;2.30;99.90;1.10;95967.00;;;;6187976;23;20420;-84
2021/01/05 03:28:14;;;;;;;9.00;6.70;;;2.30;99.90;1.00;95967.00;;;;6188078;23;20181;-84
2021/01/05 03:30:47;;;;;;;10.13;6.93;;;2.30;99.90;1.00;95964.00;;;;6189062;23;20454;-84
2021/01/05 03:33:15;;;;;;;10.87;7.23;;;2.30;99.90;1.00;95970.00;;;;6189357;23;20975;-84
2021/01/05 03:35:43;;;;;;;8.63;6.40;;;2.20;99.90;0.90;95972.00;;;;6189391;23;20408;-84
2021/01/05 03:38:12;;;;;;;9.70;6.83;;;2.20;99.90;0.90;95955.00;;;;6188474;23;20408;-84
2021/01/05 03:40:40;;;;;;;7.20;5.73;;;2.20;99.90;0.90;95965.00;;;;6189152;23;20423;-85
2021/01/05 03:43:07;;;;;;;7.70;5.47;;;2.10;99.90;0.90;95956.00;;;;6187710;23;20416;-86
2021/01/05 03:45:35;;;;;;;7.83;5.70;;;2.10;99.90;0.90;95951.00;;;;6187015;23;20459;-86
2021/01/05 03:48:03;;;;;;;6.83;5.93;;;2.10;99.90;0.90;95956.00;;;;6186928;23;20441;-84
2021/01/05 03:50:30;;;;;;;7.97;5.40;;;2.10;99.90;0.90;95957.00;;;;6188678;23;20874;-84
2021/01/05 03:52:58;;;;;;;6.93;5.43;;;2.10;99.90;0.90;95951.00;;;;6187926;23;20451;-84
2021/01/05 03:55:27;;;;;;;7.60;5.80;;;2.10;99.90;0.90;95959.00;;;;6185292;23;20877;-85
2021/01/05 03:57:54;;;;;;;8.33;6.53;;;2.10;99.90;0.90;95959.00;;;;6184752;23;20409;-83
2021/01/05 04:00:27;;;;;;;7.70;5.77;;;2.10;99.90;0.90;95949.00;;;;6184308;23;20420;-85
2021/01/05 04:02:56;;;;;;;9.83;6.20;;;2.10;99.90;1.00;95961.00;;;;6184635;23;21082;-86
2021/01/05 04:05:27;;;;;;;8.90;6.03;;;2.10;99.90;1.00;95949.00;;;;6185931;23;20411;-86
2021/01/05 04:07:55;;;;;;;9.90;5.20;;;2.10;99.90;1.00;95948.00;;;;6184653;23;20455;-88
2021/01/05 04:10:23;;;;;;;9.60;6.93;;;2.20;99.90;1.00;95953.00;;;;6186220;23;20397;-87
2021/01/05 04:12:52;;;;;;;9.77;5.10;;;2.20;99.90;1.00;95947.00;;;;6185917;23;20447;-84
2021/01/05 04:15:24;;;;;;;8.40;5.97;;;2.20;99.90;1.00;95955.00;;;;6186052;23;20396;-86
2021/01/05 04:17:52;;;;;;;5.53;4.87;;;2.20;99.90;0.90;95949.00;;;;6186128;23;20417;-85
2021/01/05 04:20:21;;;;;;;10.33;6.20;;;2.40;99.90;0.90;95950.00;;;;6186577;23;20400;-87
2021/01/05 04:22:49;;;;;;;8.03;5.90;;;2.50;99.90;0.90;95953.00;;;;6186217;23;20737;-84
2021/01/05 04:25:19;;;;;;;7.53;5.87;;;2.10;99.90;0.90;95961.00;;;;6187423;23;20432;-85
2021/01/05 04:27:48;;;;;;;8.00;5.63;;;2.10;99.90;0.90;95956.00;;;;6187883;23;20429;-84
2021/01/05 04:30:23;;;;;;;7.80;4.97;;;2.10;99.90;0.90;95951.00;;;;6187545;23;20882;-85
2021/01/05 04:32:52;;;;;;;11.23;6.13;;;2.10;99.90;0.90;95957.00;;;;6186504;23;20421;-85
2021/01/05 04:35:22;;;;;;;10.97;5.70;;;2.10;99.90;0.90;95953.00;;;;6187226;23;20409;-84
2021/01/05 04:37:50;;;;;;;6.93;5.20;;;2.10;99.90;1.00;95961.00;;;;6186718;23;20416;-84
2021/01/05 04:40:26;;;;;;;6.17;5.43;;;2.10;99.90;0.90;95958.00;;;;6186702;23;20610;-84
2021/01/05 04:43:25;;;;;;;6.67;5.10;;;2.10;99.90;0.90;95959.00;;;;6188947;23;20405;-84
2021/01/05 04:46:14;;;;;;;7.03;6.13;;;2.10;99.90;0.80;95972.00;;;;6183710;23;20393;-84
2021/01/05 04:48:53;;;;;;;7.73;6.23;;;2.10;99.90;0.80;95960.00;;;;6184773;23;20757;-84
2021/01/05 04:51:44;;;;;;;8.53;6.37;;;2.00;99.90;0.80;95953.00;;;;6183894;23;20948;-84
2021/01/05 04:54:23;;;;;;;9.83;6.13;;;2.00;99.90;0.80;95954.00;;;;6183878;23;20393;-83
2021/01/05 04:57:04;;;;;;;9.00;6.03;;;2.00;99.90;0.70;95958.00;;;;6183710;23;20527;-83
2021/01/05 04:59:38;;;;;;;8.00;5.80;;;2.00;99.90;0.60;95952.00;;;;6183946;23;21072;-83
2021/01/05 05:02:17;;;;;;;7.10;5.43;;;2.20;99.90;0.60;95955.00;;;;6183474;23;20432;-84
2021/01/05 05:04:55;;;;;;;8.80;5.80;;;1.90;99.90;0.60;95955.00;;;;6184414;23;20389;-83
2021/01/05 05:07:39;;;;;;;7.50;5.60;;;1.90;99.90;0.60;95960.00;;;;6184620;23;20432;-83
2021/01/05 05:10:14;;;;;;;7.93;5.50;;;1.80;99.90;0.60;95959.00;;;;6184176;23;20424;-83
2021/01/05 05:12:49;;;;;;;7.93;5.57;;;1.80;99.90;0.60;95966.00;;;;6184203;23;20439;-84
2021/01/05 05:15:42;;;;;;;7.87;5.80;;;1.80;99.90;0.60;95951.00;;;;6184352;23;20895;-85
2021/01/05 05:18:35;;;;;;;9.53;5.73;;;1.80;99.90;0.60;95963.00;;;;6184093;23;20726;-84
2021/01/05 05:21:29;;;;;;;7.63;5.43;;;1.80;99.90;0.70;95963.00;;;;6184496;23;20436;-84
2021/01/05 05:24:19;;;;;;;7.80;5.23;;;1.80;99.90;0.70;95958.00;;;;6182926;23;20424;-84
2021/01/05 05:26:56;;;;;;;10.33;5.57;;;1.80;99.90;0.70;95959.00;;;;6179425;23;20456;-88
2021/01/05 05:29:43;;;;;;;8.17;5.97;;;1.80;99.90;0.70;95956.00;;;;6184019;23;20404;-84
2021/01/05 05:32:20;;;;;;;9.47;5.50;;;1.80;99.90;0.70;95958.00;;;;6183088;23;20615;-84
2021/01/05 05:34:58;;;;;;;9.33;5.60;;;2.00;99.90;0.80;95958.00;;;;6183779;23;20415;-85
2021/01/05 05:37:45;;;;;;;8.40;5.43;;;1.90;99.90;0.70;95955.00;;;;6184393;23;20393;-85
2021/01/05 05:40:27;;;;;;;7.70;6.07;;;1.90;99.90;0.70;95959.00;;;;6184748;23;20403;-84
2021/01/05 05:43:38;;;;;;;8.03;5.60;;;2.00;99.90;0.70;95958.00;;;;6183822;23;20397;-83
2021/01/05 05:46:11;;;;;;;7.30;6.00;;;1.90;99.90;0.60;95957.00;;;;6179784;23;20412;-83
2021/01/05 05:48:49;;;;;;;9.23;6.27;;;1.90;99.90;0.60;95957.00;;;;6183967;23;20397;-84
2021/01/05 05:51:27;;;;;;;6.20;5.30;;;1.90;99.90;0.60;95959.00;;;;6184318;23;20204;-86
2021/01/05 05:53:59;;;;;;;9.67;5.47;;;1.90;99.90;0.60;95965.00;;;;6184454;23;20896;-86
2021/01/05 05:56:46;;;;;;;6.47;5.07;;;1.80;99.90;0.60;95954.00;;;;6183962;23;20747;-84
2021/01/05 05:59:15;;;;;;;6.47;5.37;;;2.00;99.90;0.60;95961.00;;;;6183893;23;20193;-84
2021/01/05 06:01:44;;;;;;;7.43;5.37;;;1.90;99.90;0.50;95960.00;;;;6184370;23;20775;-83
2021/01/05 06:04:14;;;;;;;9.60;5.60;;;1.80;99.90;0.60;95963.00;;;;6184549;23;20444;-84
2021/01/05 06:06:43;;;;;;;5.70;5.07;;;1.80;99.90;0.40;95970.00;;;;6184263;23;20450;-83
2021/01/05 06:09:10;;;;;;;5.20;4.50;;;1.80;99.90;0.40;95963.00;;;;6183378;23;20423;-85
2021/01/05 06:11:38;;;;;;;9.80;6.00;;;1.70;99.90;0.40;95957.00;;;;6184024;23;20495;-85
2021/01/05 06:14:06;;;;;;;5.47;4.77;;;1.70;99.90;0.30;95964.00;;;;6184333;23;20416;-85
2021/01/05 06:16:35;;;;;;;5.93;4.97;;;1.70;99.90;0.40;95964.00;;;;6183782;23;20397;-85
2021/01/05 06:19:02;;;;;;;6.80;5.30;;;1.60;99.90;0.40;95974.00;;;;6184341;23;20409;-84
2021/01/05 06:21:30;;;;;;;6.83;5.30;;;1.60;99.90;0.40;95970.00;;;;6184072;23;20444;-84
2021/01/05 06:23:58;;;;;;;6.60;5.50;;;1.60;99.90;0.40;95972.00;;;;6183961;23;20437;-84
2021/01/05 06:26:26;;;;;;;6.60;4.93;;;1.60;99.90;0.40;95966.00;;;;6184851;23;20810;-84
2021/01/05 06:28:53;;;;;;;8.47;5.40;;;1.70;99.90;0.50;95972.00;;;;6184389;23;20480;-85
2021/01/05 06:31:21;;;;;;;8.57;5.57;;;1.70;99.90;0.50;95974.00;;;;6183926;23;20429;-85
2021/01/05 06:33:49;;;;;;;6.17;5.53;;;1.70;99.90;0.60;95971.00;;;;6183867;23;20413;-85
2021/01/05 06:36:16;;;;;;;7.23;4.90;;;1.70;99.90;0.50;95970.00;;;;6183669;23;20447;-85
2021/01/05 06:38:44;;;;;;;12.63;5.70;;;1.70;99.90;0.60;95966.00;;;;6183994;23;20389;-84
2021/01/05 06:41:12;;;;;;;9.00;5.27;;;1.70;99.90;0.50;95980.00;;;;6183469;23;20432;-84
2021/01/05 06:43:40;;;;;;;7.17;5.60;;;1.70;99.90;0.60;95983.00;;;;6184047;23;20396;-85
2021/01/05 06:46:10;;;;;;;5.67;4.63;;;1.70;99.90;0.60;95984.00;;;;6183796;23;20412;-84
2021/01/05 06:48:38;;;;;;;5.47;4.90;;;1.80;99.90;0.60;95983.00;;;;6182923;23;20404;-84
2021/01/05 06:51:06;;;;;;;6.57;5.23;;;1.80;99.90;0.50;95993.00;;;;6184155;23;21029;-84
2021/01/05 06:53:34;;;;;;;6.47;5.83;;;2.00;99.90;0.50;95983.00;;;;6183533;23;20420;-84
2021/01/05 06:56:02;;;;;;;5.00;4.50;;;1.70;99.90;0.50;95984.00;;;;6183120;23;20412;-85
2021/01/05 06:58:30;;;;;;;5.30;4.53;;;1.70;99.90;0.40;95988.00;;;;6182318;23;20507;-84
2021/01/05 07:00:58;;;;;;;6.37;4.83;;;1.70;99.90;0.30;95990.00;;;;6183149;23;20429;-84
2021/01/05 07:03:26;;;;;;;8.27;5.43;;;1.70;99.90;0.60;95988.00;;;;6182995;23;20420;-85
2021/01/05 07:05:53;;;;;;;9.00;6.20;;;1.60;99.90;0.60;95992.00;;;;6183331;23;20418;-84
2021/01/05 07:08:21;;;;;;;7.37;5.43;;;1.70;99.90;0.50;95994.00;;;;6183097;23;20432;-84
2021/01/05 07:10:49;;;;;;;5.90;4.90;;;1.70;99.90;0.60;95985.00;;;;6183283;23;20945;-84
2021/01/05 07:13:17;;;;;;;6.60;4.90;;;1.80;99.90;0.70;95999.00;;;;6183233;23;20906;-84
2021/01/05 07:15:46;;;;;;;8.17;5.30;;;1.70;99.90;0.60;95985.00;;;;6183228;23;20459;-84
2021/01/05 07:18:13;;;;;;;7.53;5.20;;;1.70;99.90;1.10;95990.00;;;;6183875;23;20424;-84
2021/01/05 07:20:49;;;;;;;4.83;4.23;;;1.50;99.90;0.90;95994.00;;;;6183376;23;20443;-84
2021/01/05 07:23:16;;;;;;;6.13;3.87;;;1.90;99.90;0.90;95993.00;;;;6183478;23;20440;-85
2021/01/05 07:25:45;;;;;;;5.23;4.73;;;2.00;99.90;0.70;95993.00;;;;6183448;23;20482;-84
2021/01/05 07:28:13;;;;;;;4.40;4.00;;;2.00;99.90;0.70;95990.00;;;;6184028;23;20494;-85
2021/01/05 07:30:40;;;;;;;5.40;4.10;;;1.90;99.90;0.60;95988.00;;;;6185390;23;20393;-85
2021/01/05 07:33:09;;;;;;;5.23;3.90;;;1.90;99.90;0.60;95990.00;;;;6183767;23;20856;-85
2021/01/05 07:35:36;;;;;;;5.17;3.70;;;1.90;99.90;0.60;95985.00;;;;6183422;23;20417;-85
2021/01/05 07:38:04;;;;;;;4.50;3.70;;;1.90;99.90;0.60;95992.00;;;;6182518;23;20415;-84
2021/01/05 07:40:31;;;;;;;4.50;3.70;;;1.90;99.90;0.60;95988.00;;;;6183325;23;20408;-84
2021/01/05 07:42:59;;;;;;;4.77;4.37;;;1.90;99.90;0.60;95987.00;;;;6183801;23;20869;-84
2021/01/05 07:45:26;;;;;;;4.83;4.13;;;1.80;99.90;0.60;95976.00;;;;6183238;23;20732;-84
2021/01/05 07:47:54;;;;;;;6.07;4.33;;;1.90;99.90;0.40;95985.00;;;;6187603;23;20436;-84
2021/01/05 07:50:26;;;;;;;5.83;4.43;;;1.90;99.90;0.30;95979.00;;;;6183725;23;20764;-86
2021/01/05 07:52:55;;;;;;;4.23;3.63;;;1.80;99.90;0.40;95985.00;;;;6186094;23;20408;-85
2021/01/05 07:55:25;;;;;;;5.03;3.93;;;1.70;99.90;0.40;95982.00;;;;6186034;23;20890;-85
2021/01/05 07:57:55;;;;;;;5.83;4.03;;;1.70;99.90;0.60;95985.00;;;;6182845;23;20738;-85
2021/01/05 08:00:25;;;;;;;4.63;3.83;;;2.00;99.90;0.50;95978.00;;;;6182624;23;20437;-85
2021/01/05 08:02:54;;;;;;;5.83;4.17;;;1.80;99.90;0.40;95976.00;;;;6184947;23;20720;-84
2021/01/05 08:05:25;;;;;;;5.33;3.90;;;1.70;99.90;0.40;95979.00;;;;6184701;23;20409;-85
2021/01/05 08:07:53;;;;;;;4.87;4.00;;;2.00;99.90;0.40;95983.00;;;;6184880;23;20435;-85
2021/01/05 08:10:24;;;;;;;5.77;3.80;;;1.70;99.90;0.40;95972.00;;;;6184869;23;20444;-83
2021/01/05 08:12:52;;;;;;;5.40;3.77;;;1.70;99.90;0.50;95979.00;;;;6185937;23;20413;-83
2021/01/05 08:15:24;;;;;;;4.20;3.80;;;1.90;99.90;0.60;95988.00;;;;6184891;23;20416;-84
2021/01/05 08:17:52;;;;;;;4.67;4.00;;;1.80;99.90;0.60;95985.00;;;;6185406;23;20397;-84
2021/01/05 08:20:24;;;;;;;4.40;3.40;;;2.30;99.90;0.50;95975.00;;;;6185828;23;20409;-84
2021/01/05 08:22:52;;;;;;;3.93;3.27;;;1.80;99.90;0.50;95983.00;;;;6185742;23;20400;-84
2021/01/05 08:25:21;;;;;;;5.50;4.37;;;2.20;99.90;0.70;95971.00;;;;6184742;23;20503;-82
2021/01/05 08:27:51;;;;;;;5.30;3.93;;;1.90;99.90;0.70;95967.00;;;;6185719;23;21036;-82
2021/01/05 08:30:23;;;;;;;3.27;2.70;;;1.90;99.90;0.70;95966.00;;;;6184544;23;20453;-85
2021/01/05 08:32:51;;;;;;;3.23;2.83;;;1.90;99.90;0.80;95973.00;;;;6184534;23;20485;-82
2021/01/05 08:35:23;;;;;;;3.70;3.40;;;2.20;99.90;0.70;95977.00;;;;6184417;23;20420;-83
2021/01/05 08:37:51;;;;;;;3.47;2.80;;;2.00;99.90;0.80;95977.00;;;;6187737;23;20436;-84
2021/01/05 08:40:23;;;;;;;3.27;2.97;;;2.10;99.90;0.70;95966.00;;;;6185100;23;20440;-84
2021/01/05 08:42:51;;;;;;;3.53;2.90;;;3.20;99.90;0.80;95978.00;;;;6185817;23;20455;-83
2021/01/05 08:45:18;;;;;;;4.50;3.20;;;2.00;99.90;0.80;95971.00;;;;6184154;23;20853;-83
2021/01/05 08:47:47;;;;;;;3.57;2.70;;;2.00;99.90;0.90;95982.00;;;;6184214;23;20763;-83
2021/01/05 08:50:19;;;;;;;3.93;3.17;;;2.10;99.90;1.10;95977.00;;;;6185485;23;20476;-83
2021/01/05 08:52:47;;;;;;;5.13;3.30;;;2.10;99.90;1.20;95985.00;;;;6183818;23;20432;-83
2021/01/05 08:55:16;;;;;;;3.17;2.77;;;2.20;99.90;1.10;95970.00;;;;6184072;23;20397;-83
2021/01/05 08:57:45;;;;;;;4.67;3.00;;;2.30;99.90;1.00;95980.00;;;;6183883;23;20598;-83
2021/01/05 09:00:15;;;;;;;3.10;2.47;;;2.30;99.90;1.30;95981.00;;;;6183982;23;20878;-83
2021/01/05 09:02:42;;;;;;;6.73;4.90;;;2.30;99.90;1.00;95972.00;;;;6184479;23;20433;-83
2021/01/05 09:05:12;;;;;;;4.83;3.93;;;2.30;99.90;1.10;95977.00;;;;6184502;23;20451;-83
2021/01/05 09:07:40;;;;;;;7.03;5.27;;;2.30;99.90;1.10;95977.00;;;;6184178;23;20462;-84
2021/01/05 09:10:18;;;;;;;6.13;5.53;;;2.30;99.90;1.20;95981.00;;;;6184055;23;20439;-83
2021/01/05 09:12:46;;;;;;;6.27;4.63;;;2.30;99.90;1.30;95981.00;;;;6183635;23;20617;-84
2021/01/05 09:15:16;;;;;;;5.27;4.37;;;2.40;99.90;1.30;95982.00;;;;6184343;23;20416;-84
2021/01/05 09:17:46;;;;;;;3.50;3.20;;;2.40;99.90;1.30;95982.00;;;;6183950;23;20424;-83
2021/01/05 09:20:16;;;;;;;4.80;4.03;;;2.50;99.90;1.20;95976.00;;;;6183900;23;20400;-83
2021/01/05 09:22:44;;;;;;;2.87;2.57;;;2.50;99.90;1.00;95975.00;;;;6183453;23;20490;-84
2021/01/05 09:25:13;;;;;;;2.97;2.30;;;2.40;99.90;1.00;95984.00;;;;6190479;23;20432;-83
2021/01/05 09:27:41;;;;;;;14.43;8.87;;;2.30;99.90;1.00;95965.00;;;;6186152;23;20479;-83
2021/01/05 09:30:16;;;;;;;5.53;3.47;;;2.30;99.90;1.30;95978.00;;;;6183342;23;20412;-83
2021/01/05 09:32:44;;;;;;;11.00;8.00;;;2.30;99.90;1.40;95976.00;;;;6183483;23;20463;-83
2021/01/05 09:35:13;;;;;;;13.60;8.87;;;2.50;99.90;1.40;95983.00;;;;6184553;23;20417;-83
2021/01/05 09:37:43;;;;;;;6.57;5.90;;;2.50;99.90;1.50;95981.00;;;;6182997;23;20475;-83
2021/01/05 09:40:13;;;;;;;11.50;5.80;;;3.60;99.90;1.50;95962.00;;;;6185280;23;20416;-85
2021/01/05 09:42:41;;;;;;;4.13;3.63;;;2.60;99.90;1.40;95980.00;;;;6182616;23;20468;-84
2021/01/05 09:45:10;;;;;;;4.00;2.70;;;2.70;99.90;1.60;95964.00;;;;6183739;23;20944;-84
2021/01/05 09:47:38;;;;;;;2.70;2.50;;;2.70;99.90;1.80;95962.00;;;;6183339;23;20535;-83
2021/01/05 09:50:08;;;;;;;2.63;2.30;;;2.80;99.90;2.10;95966.00;;;;6183549;23;20408;-83
2021/01/05 09:52:38;;;;;;;2.90;2.60;;;2.90;99.90;2.20;95957.00;;;;6182684;23;20205;-83
2021/01/05 09:55:10;;;;;;;2.20;2.00;;;3.10;99.90;2.30;95965.00;;;;6184219;23;20177;-83
2021/01/05 09:57:38;;;;;;;2.90;2.50;;;3.20;99.90;2.20;95954.00;;;;6183372;23;20205;-83
2021/01/05 10:00:10;;;;;;;2.17;1.83;;;3.30;99.90;2.20;95950.00;;;;6183404;23;20774;-83
2021/01/05 10:02:38;;;;;;;2.47;2.27;;;3.40;99.90;2.30;95957.00;;;;6183130;23;20556;-83
2021/01/05 10:05:08;;;;;;;2.87;2.43;;;3.40;99.90;2.30;95943.00;;;;6183012;23;20416;-83
2021/01/05 10:07:35;;;;;;;2.20;2.00;;;3.50;99.90;2.20;95945.00;;;;6182208;23;20280;-83
2021/01/05 10:10:04;;;;;;;1.97;1.80;;;3.50;99.90;2.30;95935.00;;;;6182390;23;20177;-83
2021/01/05 10:12:31;;;;;;;2.43;2.23;;;3.50;99.90;2.50;95932.00;;;;6183021;23;20213;-84
2021/01/05 10:15:00;;;;;;;2.53;1.77;;;3.60;99.90;2.20;95924.00;;;;6182841;23;20162;-84
2021/01/05 10:17:28;;;;;;;2.20;1.90;;;3.50;99.90;2.80;95925.00;;;;6182588;23;20185;-84
2021/01/05 10:19:55;;;;;;;2.20;2.00;;;3.60;99.90;2.70;95944.00;;;;6183249;23;20212;-84
2021/01/05 10:22:23;;;;;;;4.43;2.70;;;3.70;99.90;2.70;95936.00;;;;6185280;23;20233;-83
2021/01/05 10:24:50;;;;;;;3.30;3.00;;;2.90;99.90;2.50;95948.00;;;;6182535;23;20192;-83
2021/01/05 10:27:18;;;;;;;4.37;3.03;;;3.70;99.90;2.40;95938.00;;;;6182629;23;20212;-84
2021/01/05 10:29:45;;;;;;;5.80;4.10;;;3.70;99.90;2.60;95925.00;;;;6183832;23;20181;-84
2021/01/05 10:32:14;;;;;;;12.43;7.97;;;3.70;99.90;3.10;95919.00;;;;6183155;23;20682;-83
2021/01/05 10:34:42;;;;;;;5.33;4.63;;;4.00;99.90;3.20;95935.00;;;;6183145;23;20273;-84
2021/01/05 10:37:10;;;;;;;3.77;3.47;;;4.20;99.90;3.20;95916.00;;;;6182989;23;20185;-84
2021/01/05 10:39:38;;;;;;;6.27;5.43;;;4.30;99.90;3.60;95928.00;;;;6183243;23;20619;-84
2021/01/05 10:42:06;;;;;;;4.37;3.83;;;4.50;99.90;4.10;95906.00;;;;6184318;23;20232;-84
2021/01/05 10:44:36;;;;;;;4.10;3.80;;;4.90;99.90;4.50;95918.00;;;;6187018;23;20169;-84
2021/01/05 10:47:07;;;;;;;3.80;2.63;;;5.30;99.90;4.90;95923.00;;;;6183839;23;20189;-84
2021/01/05 10:49:35;;;;;;;4.77;2.37;;;5.70;99.90;5.50;95925.00;;;;6183792;23;20178;-84
2021/01/05 10:52:05;;;;;;;2.10;1.90;;;6.30;99.90;5.90;95920.00;;;;6181925;23;20257;-84
2021/01/05 10:54:33;;;;;;;3.17;2.77;;;6.80;99.90;5.90;95918.00;;;;6182578;23;20180;-84
2021/01/05 10:57:04;;;;;;;5.00;4.60;;;7.20;99.90;6.20;95928.00;;;;6181795;23;20189;-83
2021/01/05 10:59:33;;;;;;;3.03;2.83;;;7.60;99.90;5.70;95921.00;;;;6182423;23;20517;-84
2021/01/05 11:02:02;;;;;;;2.73;2.50;;;7.50;99.90;6.10;95917.00;;;;6182393;23;20542;-84
2021/01/05 11:04:31;;;;;;;4.40;2.57;;;7.70;99.90;6.20;95928.00;;;;6183380;23;20227;-84
2021/01/05 11:07:01;;;;;;;2.40;2.20;;;7.80;99.90;6.30;95923.00;;;;6182962;23;20240;-84
2021/01/05 11:09:29;;;;;;;3.90;1.93;;;8.00;99.90;7.00;95925.00;;;;6182507;23;20177;-84
2021/01/05 11:11:58;;;;;;;3.47;2.73;;;8.40;99.90;7.10;95932.00;;;;6182185;23;20205;-84
2021/01/05 11:14:26;;;;;;;3.73;2.50;;;8.70;99.90;6.70;95922.00;;;;6181983;23;20189;-84
2021/01/05 11:16:55;;;;;;;3.67;2.20;;;8.70;99.90;6.80;95965.00;;;;6183127;23;20871;-84
2021/01/05 11:19:25;;;;;;;3.30;3.00;;;8.90;99.90;5.60;95949.00;;;;6184723;23;20187;-83
2021/01/05 11:21:54;;;;;;;4.17;3.87;;;8.50;99.90;5.10;95942.00;;;;6188408;23;20532;-83
2021/01/05 11:24:25;;;;;;;14.43;8.73;;;7.80;99.90;4.60;95943.00;;;;6185281;23;20192;-84
2021/01/05 11:26:53;;;;;;;3.43;3.07;;;7.10;99.90;4.00;95933.00;;;;6186275;23;20200;-83
2021/01/05 11:29:21;;;;;;;10.30;7.40;;;6.40;99.90;4.00;95937.00;;;;6185023;23;20192;-83
2021/01/05 11:31:55;;;;;;;17.70;11.03;;;5.90;99.90;4.20;95915.00;;;;6185549;23;20690;-85
2021/01/05 11:34:23;;;;;;;33.73;16.77;;;5.70;99.90;5.10;95907.00;;;;6185348;23;20166;-83